Time;durP1;ratioP1;P1;durP2;ratioP2;P2;SDS_P1;SDS_P2;PMS_P1;PMS_P2;Temp;Humidity;BMP_temperature;BMP_pressure;BME280_temperature;BME280_humidity;BME280_pressure;Samples;Min_cycle;Max_cycle;Signal;HPM_P1;HPM_P2
2023/05/28 00:01:11;;;;;;;;;7.50;7.50;;;;;;;;5067259;28;46098;-61
2023/05/28 00:03:36;;;;;;;;;8.25;7.25;;;;;;;;5074802;27;45226;-62
2023/05/28 00:06:02;;;;;;;;;9.00;9.00;;;;;;;;5074946;28;45385;-61
2023/05/28 00:08:27;;;;;;;;;10.75;7.75;;;;;;;;5075195;27;45550;-60
2023/05/28 00:10:59;;;;;;;;;8.25;8.25;;;;;;;;5073318;28;45245;-60
2023/05/28 00:13:25;;;;;;;;;9.40;9.40;;;;;;;;5074759;27;45363;-59
2023/05/28 00:15:51;;;;;;;;;11.60;8.00;;;;;;;;5074930;27;45257;-60
2023/05/28 00:18:16;;;;;;;;;10.25;8.50;;;;;;;;5074690;28;45619;-60
2023/05/28 00:20:41;;;;;;;;;12.00;9.00;;;;;;;;5075036;28;46128;-59
2023/05/28 00:23:06;;;;;;;;;11.00;7.50;;;;;;;;5073021;28;45392;-60
2023/05/28 00:25:32;;;;;;;;;11.25;9.50;;;;;;;;5074716;28;45350;-60
2023/05/28 00:27:57;;;;;;;;;13.50;12.00;;;;;;;;5074511;27;45306;-60
2023/05/28 00:30:24;;;;;;;;;9.00;8.00;;;;;;;;5073359;28;45519;-61
2023/05/28 00:32:50;;;;;;;;;8.80;8.20;;;;;;;;5074679;27;45381;-57
2023/05/28 00:35:15;;;;;;;;;13.50;10.25;;;;;;;;5074608;28;45470;-59
2023/05/28 00:37:41;;;;;;;;;10.75;8.50;;;;;;;;5074837;27;45476;-58
2023/05/28 00:40:06;;;;;;;;;12.75;10.25;;;;;;;;5074255;28;45475;-58
2023/05/28 00:42:31;;;;;;;;;13.50;9.00;;;;;;;;5073132;28;45442;-58
2023/05/28 00:44:57;;;;;;;;;12.25;10.50;;;;;;;;5065214;27;45463;-59
2023/05/28 00:47:22;;;;;;;;;16.25;11.75;;;;;;;;5071047;28;45406;-59
2023/05/28 00:49:48;;;;;;;;;13.75;12.75;;;;;;;;5074720;27;46529;-59
2023/05/28 00:52:13;;;;;;;;;13.00;11.50;;;;;;;;5073119;28;45419;-57
2023/05/28 00:54:39;;;;;;;;;13.50;11.00;;;;;;;;5073516;28;45373;-56
2023/05/28 00:57:04;;;;;;;;;13.00;10.00;;;;;;;;5073400;28;45663;-62
2023/05/28 00:59:30;;;;;;;;;11.75;10.75;;;;;;;;5072922;28;46188;-56
2023/05/28 01:01:55;;;;;;;;;13.00;12.00;;;;;;;;5076784;28;45712;-59
2023/05/28 01:04:22;;;;;;;;;12.25;9.00;;;;;;;;5078254;27;45338;-58
2023/05/28 01:06:48;;;;;;;;;14.20;11.60;;;;;;;;5076798;28;45273;-60
2023/05/28 01:09:13;;;;;;;;;14.80;11.60;;;;;;;;5078130;27;46099;-61
2023/05/28 01:11:39;;;;;;;;;15.75;12.25;;;;;;;;5076541;28;45471;-60
2023/05/28 01:14:05;;;;;;;;;11.00;11.00;;;;;;;;5076958;28;45485;-60
2023/05/28 01:16:32;;;;;;;;;14.25;11.00;;;;;;;;5076970;28;45317;-60
2023/05/28 01:18:57;;;;;;;;;15.00;11.40;;;;;;;;5076742;28;45651;-59
2023/05/28 01:21:23;;;;;;;;;14.50;10.75;;;;;;;;5077832;27;45442;-58
2023/05/28 01:23:48;;;;;;;;;14.75;10.75;;;;;;;;5077633;27;45412;-59
2023/05/28 01:26:14;;;;;;;;;13.00;12.25;;;;;;;;5059765;28;45543;-61
2023/05/28 01:28:44;;;;;;;;;15.80;14.20;;;;;;;;5077888;27;46030;-60
2023/05/28 01:31:09;;;;;;;;;14.20;10.60;;;;;;;;5077628;27;45170;-60
2023/05/28 01:33:35;;;;;;;;;13.75;13.75;;;;;;;;5078165;27;45363;-53
2023/05/28 01:36:00;;;;;;;;;15.00;14.75;;;;;;;;5078008;27;45489;-60
2023/05/28 01:38:26;;;;;;;;;15.25;12.00;;;;;;;;5075769;28;46421;-60
2023/05/28 01:40:52;;;;;;;;;19.75;17.25;;;;;;;;5077007;27;45777;-59
2023/05/28 01:43:18;;;;;;;;;17.60;16.20;;;;;;;;5076259;28;45454;-59
2023/05/28 01:45:43;;;;;;;;;16.25;14.50;;;;;;;;5046325;27;45649;-60
2023/05/28 01:48:08;;;;;;;;;16.00;14.50;;;;;;;;5077043;28;46258;-56
2023/05/28 01:50:34;;;;;;;;;17.50;16.50;;;;;;;;5076837;27;45323;-59
2023/05/28 01:53:00;;;;;;;;;15.00;14.00;;;;;;;;5075744;28;45389;-57
2023/05/28 01:55:25;;;;;;;;;16.75;16.50;;;;;;;;5077278;27;45360;-54
2023/05/28 01:57:50;;;;;;;;;17.75;12.75;;;;;;;;5076748;27;46038;-60
2023/05/28 02:00:16;;;;;;;;;18.50;15.25;;;;;;;;5077114;28;45462;-59
2023/05/28 02:02:42;;;;;;;;;14.25;13.50;;;;;;;;5077055;27;45276;-60
2023/05/28 02:05:08;;;;;;;;;13.60;13.60;;;;;;;;5076848;27;45375;-58
2023/05/28 02:07:33;;;;;;;;;18.00;16.00;;;;;;;;5076759;28;45785;-57
2023/05/28 02:09:58;;;;;;;;;14.50;14.25;;;;;;;;5076808;28;45301;-55
2023/05/28 02:12:23;;;;;;;;;17.75;15.25;;;;;;;;5076791;28;45342;-59
2023/05/28 02:14:49;;;;;;;;;18.25;16.00;;;;;;;;5076459;28;45409;-58
2023/05/28 02:17:17;;;;;;;;;17.25;15.50;;;;;;;;5076401;28;45628;-59
2023/05/28 02:19:42;;;;;;;;;18.20;15.60;;;;;;;;5076536;28;45315;-58
2023/05/28 02:22:11;;;;;;;;;13.25;12.00;;;;;;;;5076455;28;45385;-59
2023/05/28 02:24:36;;;;;;;;;15.60;15.20;;;;;;;;5076847;27;45444;-59
2023/05/28 02:27:03;;;;;;;;;13.50;12.50;;;;;;;;5075133;28;46043;-60
2023/05/28 02:29:28;;;;;;;;;14.40;12.20;;;;;;;;5076189;28;45183;-58
2023/05/28 02:31:54;;;;;;;;;16.25;13.25;;;;;;;;5076593;28;45230;-58
2023/05/28 02:34:19;;;;;;;;;16.50;16.50;;;;;;;;5076948;28;45146;-58
2023/05/28 02:36:44;;;;;;;;;17.75;15.00;;;;;;;;5076259;28;46686;-61
2023/05/28 02:39:10;;;;;;;;;18.25;16.75;;;;;;;;5076415;28;45343;-59
2023/05/28 02:41:35;;;;;;;;;17.75;14.75;;;;;;;;5076480;28;45337;-59
2023/05/28 02:44:01;;;;;;;;;16.75;15.75;;;;;;;;5076579;28;45660;-58
2023/05/28 02:46:26;;;;;;;;;19.50;16.00;;;;;;;;5076258;27;45464;-60
2023/05/28 02:48:51;;;;;;;;;19.25;17.00;;;;;;;;5075153;28;45320;-60
2023/05/28 02:51:16;;;;;;;;;22.25;17.00;;;;;;;;5076380;28;45283;-59
2023/05/28 02:53:42;;;;;;;;;19.00;18.25;;;;;;;;5075499;28;45592;-58
2023/05/28 02:56:07;;;;;;;;;23.75;18.50;;;;;;;;5057580;28;47418;-59
2023/05/28 02:58:32;;;;;;;;;17.00;13.75;;;;;;;;5076264;28;45376;-56
2023/05/28 03:00:57;;;;;;;;;20.25;18.00;;;;;;;;5076491;28;45319;-57
2023/05/28 03:03:23;;;;;;;;;15.00;15.00;;;;;;;;5076271;28;45516;-57
2023/05/28 03:05:48;;;;;;;;;15.75;13.50;;;;;;;;5076215;27;46601;-58
2023/05/28 03:08:14;;;;;;;;;16.75;15.25;;;;;;;;5076115;27;46035;-57
2023/05/28 03:10:39;;;;;;;;;19.00;17.75;;;;;;;;5076445;28;45358;-58
2023/05/28 03:13:04;;;;;;;;;15.25;13.25;;;;;;;;5075884;28;45612;-59
2023/05/28 03:15:30;;;;;;;;;21.00;19.00;;;;;;;;5074362;28;46052;-59
2023/05/28 03:17:56;;;;;;;;;19.40;15.60;;;;;;;;5075970;28;45332;-56
2023/05/28 03:20:21;;;;;;;;;21.00;19.00;;;;;;;;5075911;27;45874;-52
2023/05/28 03:22:47;;;;;;;;;14.75;14.75;;;;;;;;5075827;28;45272;-58
2023/05/28 03:25:13;;;;;;;;;29.20;27.60;;;;;;;;5074995;27;46302;-55
2023/05/28 03:27:38;;;;;;;;;16.00;14.50;;;;;;;;5075804;28;45338;-57
2023/05/28 03:30:04;;;;;;;;;20.25;17.75;;;;;;;;5074560;28;45384;-57
2023/05/28 03:32:30;;;;;;;;;20.00;20.00;;;;;;;;5074441;28;45503;-58
2023/05/28 03:34:55;;;;;;;;;16.75;16.75;;;;;;;;5074050;28;47881;-60
2023/05/28 03:37:20;;;;;;;;;19.25;17.75;;;;;;;;5075584;27;45361;-60
2023/05/28 03:39:46;;;;;;;;;21.25;19.50;;;;;;;;5073673;28;45482;-59
2023/05/28 03:42:11;;;;;;;;;17.50;16.00;;;;;;;;5075677;28;45431;-54
2023/05/28 03:44:36;;;;;;;;;14.75;12.50;;;;;;;;5074867;28;45429;-56
2023/05/28 03:47:01;;;;;;;;;20.25;18.75;;;;;;;;5075119;28;45379;-53
2023/05/28 03:49:27;;;;;;;;;21.50;19.50;;;;;;;;5074920;28;45384;-58
2023/05/28 03:51:52;;;;;;;;;20.50;16.75;;;;;;;;5075359;28;45280;-57
2023/05/28 03:54:17;;;;;;;;;19.50;18.25;;;;;;;;5075237;28;46775;-55
2023/05/28 03:56:43;;;;;;;;;19.50;17.25;;;;;;;;5074911;27;45422;-57
2023/05/28 03:59:08;;;;;;;;;22.50;18.50;;;;;;;;5075074;28;45321;-58
2023/05/28 04:01:34;;;;;;;;;19.75;18.50;;;;;;;;5075410;27;45536;-59
2023/05/28 04:03:59;;;;;;;;;19.25;18.50;;;;;;;;5074745;28;45844;-56
2023/05/28 04:06:24;;;;;;;;;12.25;10.25;;;;;;;;5074865;28;45321;-55
2023/05/28 04:08:50;;;;;;;;;19.00;17.50;;;;;;;;5073427;28;45432;-59
2023/05/28 04:11:15;;;;;;;;;18.25;15.50;;;;;;;;5075469;28;45692;-60
2023/05/28 04:13:40;;;;;;;;;20.00;17.50;;;;;;;;5073144;28;46104;-58
2023/05/28 04:16:06;;;;;;;;;18.75;15.00;;;;;;;;5074353;28;45404;-55
2023/05/28 04:18:32;;;;;;;;;19.00;17.75;;;;;;;;5074973;28;45222;-55
2023/05/28 04:20:57;;;;;;;;;20.00;17.50;;;;;;;;5074983;27;45478;-55
2023/05/28 04:23:22;;;;;;;;;19.75;18.00;;;;;;;;5073282;28;46078;-55
2023/05/28 04:25:47;;;;;;;;;19.00;17.75;;;;;;;;5073129;28;45997;-56
2023/05/28 04:28:14;;;;;;;;;17.25;16.00;;;;;;;;5052914;28;45385;-58
2023/05/28 04:30:39;;;;;;;;;21.20;19.60;;;;;;;;5069888;28;45594;-61
2023/05/28 04:33:05;;;;;;;;;22.00;18.25;;;;;;;;5071873;28;45334;-57
2023/05/28 04:35:30;;;;;;;;;17.60;15.80;;;;;;;;5074935;28;45262;-59
2023/05/28 04:37:55;;;;;;;;;18.75;18.00;;;;;;;;5078579;28;45376;-59
2023/05/28 04:40:21;;;;;;;;;17.00;15.50;;;;;;;;5078321;28;45466;-58
2023/05/28 04:42:47;;;;;;;;;21.75;18.25;;;;;;;;5077729;28;46481;-58
2023/05/28 04:45:13;;;;;;;;;18.20;15.80;;;;;;;;5059687;28;45413;-58
2023/05/28 04:47:38;;;;;;;;;24.75;22.25;;;;;;;;5078397;27;46050;-54
2023/05/28 04:50:04;;;;;;;;;22.00;20.25;;;;;;;;5077926;28;45528;-52
2023/05/28 04:52:31;;;;;;;;;25.60;22.00;;;;;;;;5076453;28;47256;-56
2023/05/28 04:54:57;;;;;;;;;19.80;19.60;;;;;;;;5076466;28;45394;-58
2023/05/28 04:57:22;;;;;;;;;21.00;20.25;;;;;;;;5077829;28;45796;-55
2023/05/28 04:59:48;;;;;;;;;23.25;20.50;;;;;;;;5077915;28;45274;-54
2023/05/28 05:02:13;;;;;;;;;24.50;19.75;;;;;;;;5076132;28;46432;-57
2023/05/28 05:04:38;;;;;;;;;24.75;20.00;;;;;;;;5077946;27;45284;-57
2023/05/28 05:07:04;;;;;;;;;21.50;17.50;;;;;;;;5077698;28;45586;-55
2023/05/28 05:09:30;;;;;;;;;24.75;21.00;;;;;;;;5077927;28;45328;-55
2023/05/28 05:11:55;;;;;;;;;22.40;18.80;;;;;;;;5077701;27;45474;-55
2023/05/28 05:14:21;;;;;;;;;20.25;17.25;;;;;;;;5077515;28;45370;-54
2023/05/28 05:16:46;;;;;;;;;20.25;16.50;;;;;;;;5077525;27;45499;-53
2023/05/28 05:19:11;;;;;;;;;22.25;21.00;;;;;;;;5077916;28;45293;-57
2023/05/28 05:21:37;;;;;;;;;20.75;18.00;;;;;;;;5077508;28;45423;-57
2023/05/28 05:24:02;;;;;;;;;21.25;19.00;;;;;;;;5077346;27;45349;-58
2023/05/28 05:26:27;;;;;;;;;17.75;16.50;;;;;;;;5077497;28;45588;-52
2023/05/28 05:28:53;;;;;;;;;20.00;17.25;;;;;;;;5077711;28;45537;-55
2023/05/28 05:31:18;;;;;;;;;17.00;15.50;;;;;;;;5077220;27;46596;-58
2023/05/28 05:33:43;;;;;;;;;24.00;18.25;;;;;;;;5076884;28;45227;-58
2023/05/28 05:36:09;;;;;;;;;22.00;17.50;;;;;;;;5077410;27;45424;-58
2023/05/28 05:38:35;;;;;;;;;24.40;19.20;;;;;;;;5077366;27;45556;-55
2023/05/28 05:41:00;;;;;;;;;22.25;19.75;;;;;;;;5076987;27;46810;-56
2023/05/28 05:43:26;;;;;;;;;21.75;17.75;;;;;;;;5075283;28;45461;-57
2023/05/28 05:45:51;;;;;;;;;22.75;19.75;;;;;;;;5048592;27;45399;-52
2023/05/28 05:48:16;;;;;;;;;22.50;20.00;;;;;;;;5077303;28;45258;-56
2023/05/28 05:50:51;;;;;;;;;21.00;17.75;;;;;;;;5077061;28;46448;-57
2023/05/28 05:53:16;;;;;;;;;21.40;18.40;;;;;;;;5077117;28;45342;-59
2023/05/28 05:55:42;;;;;;;;;19.25;18.25;;;;;;;;5077391;27;45421;-55
2023/05/28 05:58:07;;;;;;;;;23.00;20.25;;;;;;;;5077458;28;45366;-53
2023/05/28 06:00:33;;;;;;;;;20.25;19.25;;;;;;;;5076934;28;46104;-55
2023/05/28 06:03:00;;;;;;;;;20.20;19.00;;;;;;;;5076856;28;45335;-52
2023/05/28 06:05:25;;;;;;;;;22.20;19.80;;;;;;;;5058630;28;45500;-58
2023/05/28 06:07:50;;;;;;;;;25.75;23.25;;;;;;;;5077297;28;45241;-59
2023/05/28 06:10:16;;;;;;;;;22.00;19.00;;;;;;;;5076938;27;46382;-58
2023/05/28 06:12:41;;;;;;;;;20.25;17.25;;;;;;;;5075719;28;45345;-56
2023/05/28 06:15:07;;;;;;;;;18.50;18.50;;;;;;;;5076978;28;45261;-57
2023/05/28 06:17:32;;;;;;;;;23.25;21.25;;;;;;;;5077394;27;45297;-55
2023/05/28 06:19:59;;;;;;;;;23.00;19.00;;;;;;;;5077065;27;46128;-56
2023/05/28 06:22:24;;;;;;;;;18.40;16.60;;;;;;;;5076580;27;45369;-59
2023/05/28 06:24:52;;;;;;;;;18.25;17.25;;;;;;;;5077112;28;45284;-57
2023/05/28 06:27:17;;;;;;;;;21.40;17.80;;;;;;;;5077179;27;45467;-60
2023/05/28 06:29:42;;;;;;;;;21.00;17.75;;;;;;;;5076214;27;46220;-60
2023/05/28 06:32:08;;;;;;;;;24.75;20.25;;;;;;;;5076708;28;45303;-61
2023/05/28 06:34:33;;;;;;;;;24.75;19.00;;;;;;;;5076844;27;45220;-60
2023/05/28 06:36:58;;;;;;;;;18.50;16.25;;;;;;;;5075688;28;45400;-58
2023/05/28 06:39:24;;;;;;;;;19.25;18.75;;;;;;;;5076317;28;45571;-58
2023/05/28 06:41:50;;;;;;;;;23.00;19.75;;;;;;;;5075931;28;45215;-56
2023/05/28 06:44:16;;;;;;;;;23.00;21.00;;;;;;;;5064101;27;45539;-60
2023/05/28 06:46:41;;;;;;;;;21.00;18.75;;;;;;;;5035704;28;45952;-55
2023/05/28 06:49:06;;;;;;;;;22.25;19.75;;;;;;;;5056647;28;46600;-55
2023/05/28 06:51:31;;;;;;;;;22.25;21.75;;;;;;;;5071695;28;45405;-58
2023/05/28 06:53:57;;;;;;;;;21.75;19.50;;;;;;;;5076211;28;45982;-58
2023/05/28 06:56:22;;;;;;;;;23.25;19.00;;;;;;;;5074773;28;45549;-61
2023/05/28 06:58:49;;;;;;;;;21.00;18.75;;;;;;;;5074757;28;46009;-58
2023/05/28 07:01:14;;;;;;;;;24.00;22.40;;;;;;;;5074482;28;45387;-59
2023/05/28 07:03:40;;;;;;;;;23.75;21.00;;;;;;;;5075901;28;45380;-59
2023/05/28 07:06:05;;;;;;;;;22.50;21.25;;;;;;;;5075836;27;45407;-57
2023/05/28 07:08:30;;;;;;;;;26.75;23.25;;;;;;;;5075847;27;46115;-56
2023/05/28 07:10:56;;;;;;;;;18.00;17.00;;;;;;;;5075619;27;45839;-57
2023/05/28 07:13:21;;;;;;;;;23.50;20.50;;;;;;;;5074452;28;45361;-58
2023/05/28 07:15:46;;;;;;;;;21.50;18.75;;;;;;;;5075716;27;45482;-57
2023/05/28 07:18:11;;;;;;;;;19.00;19.00;;;;;;;;5075969;28;45772;-55
2023/05/28 07:20:37;;;;;;;;;23.50;20.75;;;;;;;;5075818;28;45216;-59
2023/05/28 07:23:02;;;;;;;;;25.50;22.75;;;;;;;;5075419;28;45239;-58
2023/05/28 07:25:28;;;;;;;;;20.25;19.00;;;;;;;;5076234;27;45143;-62
2023/05/28 07:27:53;;;;;;;;;24.00;20.75;;;;;;;;5075280;28;46599;-61
2023/05/28 07:30:18;;;;;;;;;23.75;23.50;;;;;;;;5075773;27;45216;-61
2023/05/28 07:32:44;;;;;;;;;23.75;19.50;;;;;;;;5075588;27;45363;-63
2023/05/28 07:35:10;;;;;;;;;24.25;20.75;;;;;;;;5075763;27;45311;-61
2023/05/28 07:37:36;;;;;;;;;21.00;16.40;;;;;;;;5075388;27;45938;-60
2023/05/28 07:40:01;;;;;;;;;21.00;17.75;;;;;;;;5073606;28;45746;-59
2023/05/28 07:42:26;;;;;;;;;22.50;19.75;;;;;;;;5075401;28;45904;-60
2023/05/28 07:44:52;;;;;;;;;28.50;23.25;;;;;;;;5075804;28;45343;-62
2023/05/28 07:47:17;;;;;;;;;16.00;15.25;;;;;;;;5073817;28;45987;-57
2023/05/28 07:49:44;;;;;;;;;22.00;19.40;;;;;;;;5057621;28;45417;-62
2023/05/28 07:52:09;;;;;;;;;16.50;16.00;;;;;;;;5051169;28;45374;-62
2023/05/28 07:54:34;;;;;;;;;15.50;14.75;;;;;;;;5033414;28;45732;-61
2023/05/28 07:57:00;;;;;;;;;21.25;20.00;;;;;;;;5055438;28;46571;-58
2023/05/28 07:59:26;;;;;;;;;20.50;18.25;;;;;;;;5064822;28;45864;-62
2023/05/28 08:01:51;;;;;;;;;20.40;18.00;;;;;;;;5051762;28;45405;-62
2023/05/28 08:04:17;;;;;;;;;16.25;16.25;;;;;;;;5068546;28;45817;-62
2023/05/28 08:06:43;;;;;;;;;19.00;15.75;;;;;;;;5066711;28;48221;-55
2023/05/28 08:09:08;;;;;;;;;17.75;16.00;;;;;;;;5072476;27;45282;-57
2023/05/28 08:11:33;;;;;;;;;19.25;18.75;;;;;;;;5072505;28;45420;-59
2023/05/28 08:13:59;;;;;;;;;23.25;16.75;;;;;;;;5069891;28;45409;-56
2023/05/28 08:16:24;;;;;;;;;14.00;13.50;;;;;;;;5070600;27;46512;-60
2023/05/28 08:18:49;;;;;;;;;17.50;14.75;;;;;;;;5072427;27;45391;-63
2023/05/28 08:21:15;;;;;;;;;18.00;15.25;;;;;;;;5070948;28;45358;-62
2023/05/28 08:23:40;;;;;;;;;13.75;13.75;;;;;;;;5071469;28;45560;-60
2023/05/28 08:26:06;;;;;;;;;12.25;12.25;;;;;;;;5060990;28;46155;-57
2023/05/28 08:28:31;;;;;;;;;16.75;14.75;;;;;;;;5073086;28;45929;-63
2023/05/28 08:30:56;;;;;;;;;18.75;15.75;;;;;;;;5065159;28;45446;-61
2023/05/28 08:33:22;;;;;;;;;18.75;16.50;;;;;;;;5071484;28;45660;-63
2023/05/28 08:35:47;;;;;;;;;17.50;15.25;;;;;;;;5069445;27;45465;-56
2023/05/28 08:38:13;;;;;;;;;13.50;12.25;;;;;;;;5072391;28;45434;-62
2023/05/28 08:40:41;;;;;;;;;17.75;17.50;;;;;;;;5060961;28;45754;-56
2023/05/28 08:43:07;;;;;;;;;20.20;16.80;;;;;;;;5071756;28;45883;-58
2023/05/28 08:45:33;;;;;;;;;21.75;17.75;;;;;;;;5072657;28;46440;-62
2023/05/28 08:47:59;;;;;;;;;15.40;14.20;;;;;;;;5072375;27;45453;-59
2023/05/28 08:50:25;;;;;;;;;18.25;14.25;;;;;;;;5064279;27;45595;-62
2023/05/28 08:52:50;;;;;;;;;12.50;12.50;;;;;;;;5047352;28;45335;-62
2023/05/28 08:55:16;;;;;;;;;15.00;12.50;;;;;;;;5053610;28;45578;-63
2023/05/28 08:57:41;;;;;;;;;19.00;15.00;;;;;;;;5059858;27;45452;-62
2023/05/28 09:00:08;;;;;;;;;16.00;14.75;;;;;;;;5056883;28;45898;-63
2023/05/28 09:02:33;;;;;;;;;8.60;8.00;;;;;;;;5068955;28;45812;-63
2023/05/28 09:04:58;;;;;;;;;15.50;14.50;;;;;;;;5070623;28;46339;-65
2023/05/28 09:07:25;;;;;;;;;17.50;15.50;;;;;;;;5062604;27;45433;-62
2023/05/28 09:09:50;;;;;;;;;15.40;12.60;;;;;;;;5070043;28;45526;-61
2023/05/28 09:12:20;;;;;;;;;13.50;12.00;;;;;;;;5070632;28;45377;-62
2023/05/28 09:14:45;;;;;;;;;14.00;14.00;;;;;;;;5070865;27;46343;-60
2023/05/28 09:17:13;;;;;;;;;16.50;12.25;;;;;;;;5072821;27;45464;-60
2023/05/28 09:19:39;;;;;;;;;15.80;13.20;;;;;;;;5072567;27;45533;-58
2023/05/28 09:22:04;;;;;;;;;11.75;10.25;;;;;;;;5071121;27;45515;-60
2023/05/28 09:24:30;;;;;;;;;9.00;9.00;;;;;;;;5075740;27;46233;-62
2023/05/28 09:26:58;;;;;;;;;15.75;14.00;;;;;;;;5074688;28;45428;-64
2023/05/28 09:29:24;;;;;;;;;12.60;12.20;;;;;;;;5074420;28;45349;-62
2023/05/28 09:31:56;;;;;;;;;14.75;13.00;;;;;;;;5076544;27;45535;-63
2023/05/28 09:34:25;;;;;;;;;8.00;8.00;;;;;;;;5074686;27;45542;-62
2023/05/28 09:36:51;;;;;;;;;12.40;11.40;;;;;;;;5074737;28;45450;-63
2023/05/28 09:39:17;;;;;;;;;8.80;6.00;;;;;;;;5075841;28;45611;-62
2023/05/28 09:41:44;;;;;;;;;9.00;8.25;;;;;;;;5057354;28;45610;-62
2023/05/28 09:44:10;;;;;;;;;10.40;10.00;;;;;;;;5075520;28;46329;-62
2023/05/28 09:46:36;;;;;;;;;17.80;11.80;;;;;;;;5075381;28;45423;-61
2023/05/28 09:49:01;;;;;;;;;9.75;9.75;;;;;;;;5057337;28;45263;-61
2023/05/28 09:51:31;;;;;;;;;11.25;11.25;;;;;;;;5075840;27;45590;-61
2023/05/28 09:53:57;;;;;;;;;11.40;11.40;;;;;;;;5070604;27;45422;-62
2023/05/28 09:56:23;;;;;;;;;13.60;12.00;;;;;;;;5074199;27;48469;-60
2023/05/28 09:58:50;;;;;;;;;10.25;9.50;;;;;;;;5076196;27;45504;-62
2023/05/28 10:01:15;;;;;;;;;14.40;11.00;;;;;;;;5074043;28;45725;-62
2023/05/28 10:03:46;;;;;;;;;9.00;9.00;;;;;;;;5073982;28;46369;-61
2023/05/28 10:06:13;;;;;;;;;11.60;8.80;;;;;;;;5072279;28;45511;-59
2023/05/28 10:08:38;;;;;;;;;10.40;10.40;;;;;;;;5055945;27;45411;-62
2023/05/28 10:11:05;;;;;;;;;7.00;7.00;;;;;;;;5053843;28;45412;-61
2023/05/28 10:13:31;;;;;;;;;12.20;11.20;;;;;;;;5053653;28;45464;-62
2023/05/28 10:15:57;;;;;;;;;9.25;8.25;;;;;;;;5031148;28;45942;-62
2023/05/28 10:18:22;;;;;;;;;9.60;9.60;;;;;;;;5073385;28;45679;-61
2023/05/28 10:20:47;;;;;;;;;10.25;9.75;;;;;;;;5072602;28;45687;-61
2023/05/28 10:23:13;;;;;;;;;12.25;11.00;;;;;;;;5071771;28;45696;-61
2023/05/28 10:25:38;;;;;;;;;9.50;9.50;;;;;;;;5072415;28;45637;-62
2023/05/28 10:28:03;;;;;;;;;10.25;8.75;;;;;;;;5071343;28;45401;-60
2023/05/28 10:30:32;;;;;;;;;9.75;8.75;;;;;;;;5073989;28;45685;-62
2023/05/28 10:32:57;;;;;;;;;11.00;10.00;;;;;;;;5071978;27;46066;-59
2023/05/28 10:35:23;;;;;;;;;11.75;10.75;;;;;;;;5072490;28;45795;-62
2023/05/28 10:37:48;;;;;;;;;14.75;10.00;;;;;;;;5071238;28;45494;-61
2023/05/28 10:40:23;;;;;;;;;9.50;7.50;;;;;;;;5056613;28;45462;-64
2023/05/28 10:42:48;;;;;;;;;10.80;9.80;;;;;;;;5051323;28;46605;-62
2023/05/28 10:45:14;;;;;;;;;9.00;9.00;;;;;;;;5052922;28;45460;-61
2023/05/28 10:47:40;;;;;;;;;10.50;9.50;;;;;;;;5052645;28;45502;-62
2023/05/28 10:50:08;;;;;;;;;15.00;11.20;;;;;;;;5071989;28;45587;-61
2023/05/28 10:52:34;;;;;;;;;11.00;9.20;;;;;;;;5074450;27;46442;-61
2023/05/28 10:55:02;;;;;;;;;9.75;8.50;;;;;;;;5062987;27;45539;-63
2023/05/28 10:57:30;;;;;;;;;10.00;8.60;;;;;;;;5054318;28;45569;-64
2023/05/28 10:59:59;;;;;;;;;11.60;11.00;;;;;;;;5052951;28;45483;-62
2023/05/28 11:02:25;;;;;;;;;10.20;10.20;;;;;;;;5059321;28;47342;-62
2023/05/28 11:04:55;;;;;;;;;11.40;10.20;;;;;;;;5029552;27;45890;-63
2023/05/28 11:07:21;;;;;;;;;8.20;6.20;;;;;;;;5063617;27;46020;-62
2023/05/28 11:09:50;;;;;;;;;9.25;9.25;;;;;;;;5082537;27;45582;-64
2023/05/28 11:12:15;;;;;;;;;10.60;9.00;;;;;;;;5053883;28;48260;-62
2023/05/28 11:14:41;;;;;;;;;11.00;9.00;;;;;;;;5053832;28;45342;-62
2023/05/28 11:17:07;;;;;;;;;12.00;7.75;;;;;;;;5055677;28;45355;-61
2023/05/28 11:19:38;;;;;;;;;9.40;7.20;;;;;;;;5053668;28;45909;-62
2023/05/28 11:22:04;;;;;;;;;10.60;8.80;;;;;;;;5054717;28;45440;-62
2023/05/28 11:24:29;;;;;;;;;9.25;7.50;;;;;;;;5055610;28;45717;-62
2023/05/28 11:26:54;;;;;;;;;9.75;9.00;;;;;;;;5055874;28;45315;-63
2023/05/28 11:29:20;;;;;;;;;7.50;6.50;;;;;;;;5054107;28;45791;-63
2023/05/28 11:31:45;;;;;;;;;7.75;6.75;;;;;;;;5055525;28;46126;-63
2023/05/28 11:34:10;;;;;;;;;10.25;10.00;;;;;;;;5055321;28;45310;-61
2023/05/28 11:36:42;;;;;;;;;9.50;9.25;;;;;;;;5054330;28;45401;-61
2023/05/28 11:39:07;;;;;;;;;10.60;9.20;;;;;;;;5055774;28;45170;-63
2023/05/28 11:41:33;;;;;;;;;9.25;7.25;;;;;;;;5047317;27;47300;-62
2023/05/28 11:43:58;;;;;;;;;9.75;9.00;;;;;;;;5077440;27;45286;-61
2023/05/28 11:46:23;;;;;;;;;9.00;8.25;;;;;;;;5093602;27;45347;-60
2023/05/28 11:48:50;;;;;;;;;11.25;8.25;;;;;;;;5067922;27;45591;-62
2023/05/28 11:51:15;;;;;;;;;9.60;8.40;;;;;;;;5053273;28;46690;-62
2023/05/28 11:53:41;;;;;;;;;8.75;8.75;;;;;;;;5051556;28;45396;-61
2023/05/28 11:56:08;;;;;;;;;8.75;8.00;;;;;;;;5042029;28;45862;-61
2023/05/28 11:58:33;;;;;;;;;11.60;10.60;;;;;;;;5053656;28;45398;-56
2023/05/28 12:00:59;;;;;;;;;11.25;8.25;;;;;;;;5070728;28;48443;-61
2023/05/28 12:03:27;;;;;;;;;8.00;8.00;;;;;;;;5073424;28;45507;-61
2023/05/28 12:05:52;;;;;;;;;8.00;8.00;;;;;;;;5073587;27;45271;-61
2023/05/28 12:08:18;;;;;;;;;7.00;7.00;;;;;;;;5072524;28;45774;-60
2023/05/28 12:10:44;;;;;;;;;8.00;7.20;;;;;;;;5073420;27;45937;-60
2023/05/28 12:13:11;;;;;;;;;9.25;7.75;;;;;;;;5072054;28;45395;-60
2023/05/28 12:15:36;;;;;;;;;7.80;7.80;;;;;;;;5072167;28;45463;-60
2023/05/28 12:18:02;;;;;;;;;14.00;12.00;;;;;;;;5073233;28;45565;-61
2023/05/28 12:20:29;;;;;;;;;14.40;10.00;;;;;;;;5070625;28;46970;-64
2023/05/28 12:23:00;;;;;;;;;9.00;9.00;;;;;;;;5072090;28;45485;-61
2023/05/28 12:25:25;;;;;;;;;12.20;11.60;;;;;;;;5073475;28;45320;-61
2023/05/28 12:27:51;;;;;;;;;12.00;10.00;;;;;;;;5072173;28;45321;-62
2023/05/28 12:30:16;;;;;;;;;14.50;12.75;;;;;;;;5073207;28;46760;-63
2023/05/28 12:32:41;;;;;;;;;11.25;11.25;;;;;;;;5072870;28;45662;-63
2023/05/28 12:35:07;;;;;;;;;13.50;10.75;;;;;;;;5072881;28;45387;-61
2023/05/28 12:37:32;;;;;;;;;11.00;9.50;;;;;;;;5072395;28;45516;-61
2023/05/28 12:39:58;;;;;;;;;10.00;9.00;;;;;;;;5068065;27;45771;-62
2023/05/28 12:42:23;;;;;;;;;8.50;6.75;;;;;;;;5051276;28;45492;-62
2023/05/28 12:44:48;;;;;;;;;9.00;7.25;;;;;;;;5051220;28;45440;-61
2023/05/28 12:47:13;;;;;;;;;10.00;7.75;;;;;;;;5051281;28;45516;-61
2023/05/28 12:49:39;;;;;;;;;10.00;9.00;;;;;;;;5062371;28;46947;-61
2023/05/28 12:52:04;;;;;;;;;8.50;6.50;;;;;;;;5070224;28;45681;-64
2023/05/28 12:54:29;;;;;;;;;14.50;11.25;;;;;;;;5071524;28;45401;-61
2023/05/28 12:56:55;;;;;;;;;9.50;8.50;;;;;;;;5059619;27;45439;-61
2023/05/28 12:59:21;;;;;;;;;7.75;7.50;;;;;;;;5073508;28;46267;-60
2023/05/28 13:01:46;;;;;;;;;10.00;9.00;;;;;;;;5074966;27;45481;-60
2023/05/28 13:04:12;;;;;;;;;9.75;8.50;;;;;;;;5075064;28;45721;-59
2023/05/28 13:06:37;;;;;;;;;8.50;7.25;;;;;;;;5073520;28;45606;-60
2023/05/28 13:09:03;;;;;;;;;10.00;7.50;;;;;;;;5074906;28;45408;-62
2023/05/28 13:11:29;;;;;;;;;8.20;7.80;;;;;;;;5074321;27;45500;-61
2023/05/28 13:13:54;;;;;;;;;9.25;9.25;;;;;;;;5075433;27;45355;-61
2023/05/28 13:16:20;;;;;;;;;7.50;7.50;;;;;;;;5072983;28;45338;-60
2023/05/28 13:18:45;;;;;;;;;7.00;7.00;;;;;;;;5068875;27;46634;-61
2023/05/28 13:21:11;;;;;;;;;7.75;6.50;;;;;;;;5047238;27;45368;-63
2023/05/28 13:23:36;;;;;;;;;11.00;9.80;;;;;;;;5037280;27;46323;-63
2023/05/28 13:26:01;;;;;;;;;9.75;7.75;;;;;;;;5068064;27;45565;-63
2023/05/28 13:28:27;;;;;;;;;6.50;6.50;;;;;;;;5079438;27;48452;-63
2023/05/28 13:30:52;;;;;;;;;7.75;5.50;;;;;;;;5074319;28;45677;-62
2023/05/28 13:33:18;;;;;;;;;6.25;6.25;;;;;;;;5057895;28;45510;-60
2023/05/28 13:35:43;;;;;;;;;10.00;9.00;;;;;;;;5070972;28;45456;-64
2023/05/28 13:38:08;;;;;;;;;10.75;7.25;;;;;;;;5074475;28;45889;-63
2023/05/28 13:40:34;;;;;;;;;10.00;10.00;;;;;;;;5073713;28;45528;-62
2023/05/28 13:42:59;;;;;;;;;7.75;6.50;;;;;;;;5075358;28;45798;-62
2023/05/28 13:45:25;;;;;;;;;7.75;7.75;;;;;;;;5075324;28;45589;-62
2023/05/28 13:47:50;;;;;;;;;7.75;7.00;;;;;;;;5075029;28;46245;-62
2023/05/28 13:50:16;;;;;;;;;8.25;8.25;;;;;;;;5074891;28;45357;-62
2023/05/28 13:52:43;;;;;;;;;8.00;7.00;;;;;;;;5075422;28;45375;-63
2023/05/28 13:55:08;;;;;;;;;9.40;9.20;;;;;;;;5058077;28;45703;-63
2023/05/28 13:57:33;;;;;;;;;8.75;8.75;;;;;;;;5074270;28;45318;-62
2023/05/28 14:00:05;;;;;;;;;6.75;6.75;;;;;;;;5068601;27;45423;-61
2023/05/28 14:02:30;;;;;;;;;7.40;6.40;;;;;;;;5075220;28;45428;-62
2023/05/28 14:04:55;;;;;;;;;10.50;8.75;;;;;;;;5071269;28;45561;-62
2023/05/28 14:07:21;;;;;;;;;11.00;8.00;;;;;;;;5056672;27;46207;-63
2023/05/28 14:09:46;;;;;;;;;9.00;7.25;;;;;;;;5054710;28;45905;-63
2023/05/28 14:12:11;;;;;;;;;9.75;8.00;;;;;;;;5054792;27;45624;-62
2023/05/28 14:14:36;;;;;;;;;7.25;6.00;;;;;;;;5054423;28;45561;-62